Time;durP1;ratioP1;P1;durP2;ratioP2;P2;SDS_P1;SDS_P2;PMS_P1;PMS_P2;Temp;Humidity;BMP_temperature;BMP_pressure;BME280_temperature;BME280_humidity;BME280_pressure;Samples;Min_cycle;Max_cycle;Signal;HPM_P1;HPM_P2
2024/01/24 00:01:42;;;;;;;1999.90;999.90;;;11.30;99.90;;;;;;5035359;28;20414;-79
2024/01/24 00:04:08;;;;;;;1999.90;999.90;;;11.90;99.90;;;;;;5035841;28;20045;-79
2024/01/24 00:06:36;;;;;;;1999.90;999.90;;;11.30;99.90;;;;;;5034945;28;20034;-79
2024/01/24 00:09:01;;;;;;;1999.90;999.90;;;11.30;99.90;;;;;;5018225;28;20124;-80
2024/01/24 00:11:29;;;;;;;1999.90;999.90;;;11.30;99.90;;;;;;5035019;28;20096;-79
2024/01/24 00:13:54;;;;;;;1999.90;999.90;;;11.60;99.90;;;;;;5017952;28;20033;-79
2024/01/24 00:16:20;;;;;;;1999.90;999.90;;;11.30;99.90;;;;;;5034800;28;20034;-79
2024/01/24 00:18:45;;;;;;;1999.90;999.90;;;11.30;99.90;;;;;;5018331;28;20044;-79
2024/01/24 00:21:11;;;;;;;1999.90;999.90;;;11.30;99.90;;;;;;5020510;28;20033;-80
2024/01/24 00:23:37;;;;;;;1999.90;999.90;;;11.30;99.90;;;;;;5020182;28;20119;-80
2024/01/24 00:26:02;;;;;;;1999.90;999.90;;;11.20;99.90;;;;;;5035061;28;20034;-80
2024/01/24 00:28:29;;;;;;;1999.90;999.90;;;11.20;99.90;;;;;;5035130;28;20033;-80
2024/01/24 00:30:55;;;;;;;1999.90;999.90;;;11.20;99.90;;;;;;5034477;28;20108;-80
2024/01/24 00:33:21;;;;;;;1999.90;999.90;;;11.20;99.90;;;;;;5017258;28;20075;-79
2024/01/24 00:35:46;;;;;;;1999.90;999.90;;;11.40;99.90;;;;;;5017697;28;20038;-80
2024/01/24 00:38:12;;;;;;;1999.90;999.90;;;11.30;99.90;;;;;;5017484;28;20112;-80
2024/01/24 00:40:38;;;;;;;1999.90;999.90;;;11.30;99.90;;;;;;5018446;28;20034;-79
2024/01/24 00:43:05;;;;;;;1999.90;999.90;;;11.40;99.90;;;;;;5018031;28;20041;-79
2024/01/24 00:45:30;;;;;;;1999.90;999.90;;;11.50;99.90;;;;;;5034942;28;20041;-80
2024/01/24 00:47:56;;;;;;;1999.90;999.90;;;11.30;99.90;;;;;;5017209;28;20044;-79
2024/01/24 00:50:21;;;;;;;1999.90;999.90;;;11.50;99.90;;;;;;5034253;28;20048;-80
2024/01/24 00:52:51;;;;;;;1999.90;999.90;;;11.80;99.90;;;;;;5017071;28;20061;-80
2024/01/24 00:55:18;;;;;;;1999.90;999.90;;;11.20;99.90;;;;;;5033857;28;20041;-80
2024/01/24 00:57:43;;;;;;;1999.90;999.90;;;11.20;99.90;;;;;;5033980;28;20034;-79
2024/01/24 01:00:10;;;;;;;1999.90;999.90;;;11.40;99.90;;;;;;5017367;28;20486;-79
2024/01/24 01:02:36;;;;;;;1999.90;999.90;;;11.20;99.90;;;;;;5033880;28;20072;-80
2024/01/24 01:05:04;;;;;;;1999.90;999.90;;;11.70;99.90;;;;;;5017047;28;20551;-80
2024/01/24 01:07:29;;;;;;;1999.90;999.90;;;11.20;99.90;;;;;;5016952;28;20391;-80
2024/01/24 01:09:55;;;;;;;1999.90;999.90;;;11.40;99.90;;;;;;5033508;28;20044;-79
2024/01/24 01:12:21;;;;;;;1999.90;999.90;;;11.40;99.90;;;;;;5017156;28;20054;-80
2024/01/24 01:14:47;;;;;;;1999.90;999.90;;;11.30;99.90;;;;;;5035009;28;20037;-79
2024/01/24 01:17:12;;;;;;;1999.90;999.90;;;11.30;99.90;;;;;;5032908;28;20518;-80
2024/01/24 01:19:38;;;;;;;1999.90;999.90;;;11.30;99.90;;;;;;5032683;28;20401;-79
2024/01/24 01:22:04;;;;;;;1999.90;999.90;;;11.40;99.90;;;;;;5016644;28;20116;-80
2024/01/24 01:24:29;;;;;;;1999.90;999.90;;;11.30;99.90;;;;;;5032866;28;20053;-80
2024/01/24 01:26:55;;;;;;;1999.90;999.90;;;11.30;99.90;;;;;;5033159;28;20037;-79
2024/01/24 01:29:20;;;;;;;1999.90;999.90;;;11.70;99.90;;;;;;5016153;28;20088;-80
2024/01/24 01:31:46;;;;;;;1999.90;999.90;;;11.40;99.90;;;;;;5016223;28;20383;-80
2024/01/24 01:34:12;;;;;;;1999.90;999.90;;;11.40;99.90;;;;;;5016371;28;20064;-80
2024/01/24 01:36:37;;;;;;;1999.90;999.90;;;11.40;99.90;;;;;;5031843;28;20469;-79
2024/01/24 01:39:04;;;;;;;1999.90;999.90;;;11.40;99.90;;;;;;5034154;28;20487;-79
2024/01/24 01:41:30;;;;;;;1999.90;999.90;;;11.40;99.90;;;;;;5032466;28;20073;-80
2024/01/24 01:43:55;;;;;;;1999.90;999.90;;;11.50;99.90;;;;;;5032547;28;20267;-79
2024/01/24 01:46:21;;;;;;;1999.90;999.90;;;11.70;99.90;;;;;;5032505;28;20037;-79
2024/01/24 01:48:49;;;;;;;1999.90;999.90;;;11.50;99.90;;;;;;5032019;28;20120;-79
2024/01/24 01:51:16;;;;;;;1999.90;999.90;;;11.50;99.90;;;;;;5016472;28;20121;-79
2024/01/24 01:53:44;;;;;;;1999.90;999.90;;;11.60;99.90;;;;;;5032937;28;20075;-79
2024/01/24 01:56:12;;;;;;;1999.90;999.90;;;11.50;99.90;;;;;;5033246;28;20595;-79
2024/01/24 01:58:38;;;;;;;1999.90;999.90;;;12.20;99.90;;;;;;5032273;28;20083;-79
2024/01/24 02:01:08;;;;;;;1999.90;999.90;;;11.50;99.90;;;;;;5031562;28;20033;-79
2024/01/24 02:03:33;;;;;;;1999.90;999.90;;;11.50;99.90;;;;;;5015802;28;20072;-80
2024/01/24 02:06:00;;;;;;;1999.90;999.90;;;11.50;99.90;;;;;;5016202;28;20071;-79
2024/01/24 02:08:26;;;;;;;1999.90;999.90;;;11.50;99.90;;;;;;5016528;28;20576;-79
2024/01/24 02:10:52;;;;;;;1999.90;999.90;;;11.80;99.90;;;;;;5032654;28;20413;-79
2024/01/24 02:13:19;;;;;;;1999.90;999.90;;;11.60;99.90;;;;;;5032231;28;20124;-79
2024/01/24 02:15:45;;;;;;;1999.90;999.90;;;11.70;99.90;;;;;;5032115;28;20073;-79
2024/01/24 02:18:10;;;;;;;1999.90;999.90;;;12.00;99.90;;;;;;5032524;28;20104;-79
2024/01/24 02:20:36;;;;;;;1999.90;999.90;;;11.60;99.90;;;;;;5015837;28;20053;-79
2024/01/24 02:23:02;;;;;;;1999.90;999.90;;;11.90;99.90;;;;;;5016404;28;20064;-79
2024/01/24 02:25:28;;;;;;;1999.90;999.90;;;11.60;99.90;;;;;;5016295;28;20050;-80
2024/01/24 02:27:53;;;;;;;1999.90;999.90;;;11.60;99.90;;;;;;5016016;28;20061;-79
2024/01/24 02:30:19;;;;;;;1999.90;999.90;;;11.60;99.90;;;;;;5017269;28;20095;-80
2024/01/24 02:32:45;;;;;;;1999.90;999.90;;;11.60;99.90;;;;;;5020205;28;20502;-79
2024/01/24 02:35:11;;;;;;;1999.90;999.90;;;12.20;99.90;;;;;;5019768;28;20044;-80
2024/01/24 02:37:38;;;;;;;1999.90;999.90;;;11.60;99.90;;;;;;5020201;28;20052;-79
2024/01/24 02:40:04;;;;;;;1999.90;999.90;;;11.50;99.90;;;;;;5036309;28;20056;-80
2024/01/24 02:42:30;;;;;;;1999.90;999.90;;;11.50;99.90;;;;;;5019809;28;20034;-79
2024/01/24 02:44:56;;;;;;;1999.90;999.90;;;11.50;99.90;;;;;;5020047;28;20040;-80
2024/01/24 02:47:22;;;;;;;1999.90;999.90;;;11.90;99.90;;;;;;5020025;28;20398;-81
2024/01/24 02:49:48;;;;;;;1999.90;999.90;;;11.40;99.90;;;;;;5019491;28;20033;-80
2024/01/24 02:52:14;;;;;;;1999.90;999.90;;;11.50;99.90;;;;;;5018931;28;20041;-79
2024/01/24 02:54:42;;;;;;;1999.90;999.90;;;11.30;99.90;;;;;;5035961;28;20448;-80
2024/01/24 02:57:08;;;;;;;1999.90;999.90;;;11.40;99.90;;;;;;5019665;28;20045;-79
2024/01/24 02:59:33;;;;;;;1999.90;999.90;;;11.20;99.90;;;;;;5035786;28;20113;-79
2024/01/24 03:01:59;;;;;;;1999.90;999.90;;;11.50;99.90;;;;;;5035835;28;20046;-78
2024/01/24 03:04:25;;;;;;;1999.90;999.90;;;11.20;99.90;;;;;;5039279;28;20043;-79
2024/01/24 03:06:50;;;;;;;1999.90;999.90;;;11.20;99.90;;;;;;5035875;28;20533;-80
2024/01/24 03:09:16;;;;;;;1999.90;999.90;;;11.10;99.90;;;;;;5019343;28;20044;-80
2024/01/24 03:11:42;;;;;;;1999.90;999.90;;;11.10;99.90;;;;;;5035568;28;20510;-79
2024/01/24 03:14:08;;;;;;;1999.90;999.90;;;11.10;99.90;;;;;;5034404;28;20042;-79
2024/01/24 03:16:34;;;;;;;1999.90;999.90;;;11.20;99.90;;;;;;5035874;28;20332;-79
2024/01/24 03:19:00;;;;;;;1999.90;999.90;;;11.20;99.90;;;;;;5034049;28;20053;-79
2024/01/24 03:21:25;;;;;;;1999.90;999.90;;;11.40;99.90;;;;;;5034322;28;20164;-79
2024/01/24 03:23:51;;;;;;;1999.90;999.90;;;11.60;99.90;;;;;;5017728;28;20033;-79
2024/01/24 03:26:16;;;;;;;1999.90;999.90;;;11.10;99.90;;;;;;5017610;28;20045;-79
2024/01/24 03:28:45;;;;;;;1999.90;999.90;;;11.30;99.90;;;;;;5033372;28;20063;-80
2024/01/24 03:31:11;;;;;;;1999.90;999.90;;;10.90;99.90;;;;;;5017472;28;20048;-79
2024/01/24 03:33:37;;;;;;;1999.90;999.90;;;10.80;99.90;;;;;;5016772;28;20042;-79
2024/01/24 03:36:03;;;;;;;1999.90;999.90;;;10.80;99.90;;;;;;5017721;28;20482;-79
2024/01/24 03:38:29;;;;;;;1999.90;999.90;;;10.70;99.90;;;;;;5034003;28;20037;-79
2024/01/24 03:40:55;;;;;;;1999.90;999.90;;;10.60;99.90;;;;;;5032803;28;20064;-79
2024/01/24 03:43:20;;;;;;;1999.90;999.90;;;10.70;99.90;;;;;;5016863;28;20657;-79
2024/01/24 03:45:46;;;;;;;1999.90;999.90;;;10.70;99.90;;;;;;5016851;28;20041;-79
2024/01/24 03:48:11;;;;;;;1999.90;999.90;;;10.70;99.90;;;;;;5033520;28;20041;-79
2024/01/24 03:50:38;;;;;;;1999.90;999.90;;;10.70;99.90;;;;;;5033115;28;20397;-80
2024/01/24 03:53:03;;;;;;;1999.90;999.90;;;10.70;99.90;;;;;;5017472;28;20033;-80
2024/01/24 03:55:29;;;;;;;1999.90;999.90;;;10.70;99.90;;;;;;5033465;28;20502;-80
2024/01/24 03:57:56;;;;;;;1999.90;999.90;;;10.70;99.90;;;;;;5033415;28;20041;-80
2024/01/24 04:00:22;;;;;;;1999.90;999.90;;;10.80;99.90;;;;;;5033330;28;20091;-79
2024/01/24 04:02:47;;;;;;;1999.90;999.90;;;10.70;99.90;;;;;;5033058;28;20038;-80
2024/01/24 04:05:14;;;;;;;1999.90;999.90;;;10.70;99.90;;;;;;5017625;28;20035;-80
2024/01/24 04:07:40;;;;;;;1999.90;999.90;;;10.70;99.90;;;;;;5034431;28;20405;-79
2024/01/24 04:10:07;;;;;;;1999.90;999.90;;;10.80;99.90;;;;;;5033108;28;20045;-79
2024/01/24 04:12:33;;;;;;;1999.90;999.90;;;10.80;99.90;;;;;;4979621;28;1075067;-80
2024/01/24 04:14:58;;;;;;;1999.90;999.90;;;11.30;99.90;;;;;;5033741;28;20068;-79
2024/01/24 04:17:24;;;;;;;1999.90;999.90;;;10.80;99.90;;;;;;5034958;28;20059;-80
2024/01/24 04:19:50;;;;;;;1999.90;999.90;;;10.80;99.90;;;;;;5017446;28;20102;-79
2024/01/24 04:22:16;;;;;;;1999.90;999.90;;;10.80;99.90;;;;;;5017336;28;20044;-79
2024/01/24 04:24:42;;;;;;;1999.90;999.90;;;10.80;99.90;;;;;;5034045;28;20092;-80
2024/01/24 04:27:08;;;;;;;1999.90;999.90;;;11.00;99.90;;;;;;5017152;28;20045;-80
2024/01/24 04:29:33;;;;;;;1999.90;999.90;;;10.80;99.90;;;;;;5033719;28;20029;-79
2024/01/24 04:31:59;;;;;;;1999.90;999.90;;;10.70;99.90;;;;;;5033573;28;20049;-81
2024/01/24 04:34:25;;;;;;;1999.90;999.90;;;10.70;99.90;;;;;;5033697;28;20586;-79
2024/01/24 04:36:54;;;;;;;1999.90;999.90;;;10.70;99.90;;;;;;5033597;28;20033;-78
2024/01/24 04:39:20;;;;;;;1999.90;999.90;;;11.00;99.90;;;;;;5017320;28;20043;-79
2024/01/24 04:41:46;;;;;;;1999.90;999.90;;;10.50;99.90;;;;;;5017406;28;20033;-79
2024/01/24 04:44:11;;;;;;;1999.90;999.90;;;10.50;99.90;;;;;;5033435;28;20045;-79
2024/01/24 04:46:37;;;;;;;1999.90;999.90;;;10.90;99.90;;;;;;5017622;28;20044;-79
2024/01/24 04:49:02;;;;;;;1999.90;999.90;;;10.30;99.90;;;;;;5033334;28;20064;-79
2024/01/24 04:51:28;;;;;;;1999.90;999.90;;;10.30;99.90;;;;;;5016171;28;20106;-79
2024/01/24 04:53:54;;;;;;;1999.90;999.90;;;10.20;99.90;;;;;;5032526;28;20038;-79
2024/01/24 04:56:19;;;;;;;1999.90;999.90;;;10.10;99.90;;;;;;5033477;28;20071;-79
2024/01/24 04:58:45;;;;;;;1999.90;999.90;;;10.10;99.90;;;;;;5033219;28;20052;-79
2024/01/24 05:01:13;;;;;;;1999.90;999.90;;;10.00;99.90;;;;;;5016778;28;20429;-79
2024/01/24 05:03:39;;;;;;;1999.90;999.90;;;9.90;99.90;;;;;;5033047;28;20045;-80
2024/01/24 05:06:05;;;;;;;1999.90;999.90;;;9.90;99.90;;;;;;5033135;28;20597;-78
2024/01/24 05:08:31;;;;;;;1999.90;999.90;;;9.90;99.90;;;;;;5034249;28;20114;-80
2024/01/24 05:10:56;;;;;;;1999.90;999.90;;;9.80;99.90;;;;;;5032656;28;20546;-79
2024/01/24 05:13:22;;;;;;;1999.90;999.90;;;9.80;99.90;;;;;;5032968;28;20045;-79
2024/01/24 05:15:49;;;;;;;1999.90;999.90;;;9.90;99.90;;;;;;5032878;28;20041;-79
2024/01/24 05:18:15;;;;;;;1999.90;999.90;;;9.70;99.90;;;;;;5033164;28;20041;-79
2024/01/24 05:20:41;;;;;;;1999.90;999.90;;;9.70;99.90;;;;;;5033032;28;20040;-79
2024/01/24 05:23:07;;;;;;;1999.90;999.90;;;10.00;99.90;;;;;;5016089;28;20033;-79
2024/01/24 05:25:33;;;;;;;1999.90;999.90;;;9.70;99.90;;;;;;5015868;28;20052;-80
2024/01/24 05:27:59;;;;;;;1999.90;999.90;;;9.70;99.90;;;;;;5016834;28;20095;-80
2024/01/24 05:30:25;;;;;;;1999.90;999.90;;;9.80;99.90;;;;;;5016482;28;20113;-79
2024/01/24 05:32:55;;;;;;;1999.90;999.90;;;10.20;99.90;;;;;;5016747;28;20044;-79
2024/01/24 05:35:21;;;;;;;1999.90;999.90;;;9.80;99.90;;;;;;5033011;28;20135;-79
2024/01/24 05:37:46;;;;;;;1999.90;999.90;;;9.80;99.90;;;;;;5036043;28;20080;-79
2024/01/24 05:40:12;;;;;;;1999.90;999.90;;;9.90;99.90;;;;;;5017106;28;20030;-78
2024/01/24 05:42:38;;;;;;;1999.90;999.90;;;9.80;99.90;;;;;;5033224;28;20042;-79
2024/01/24 05:45:05;;;;;;;1999.90;999.90;;;10.10;99.90;;;;;;5019886;28;20037;-79
2024/01/24 05:47:31;;;;;;;1999.90;999.90;;;9.90;99.90;;;;;;5017261;28;20056;-80
2024/01/24 05:49:58;;;;;;;1999.90;999.90;;;10.20;99.90;;;;;;5016707;28;20041;-80
2024/01/24 05:52:24;;;;;;;1999.90;999.90;;;10.00;99.90;;;;;;5033072;28;20097;-80
2024/01/24 05:54:50;;;;;;;1999.90;999.90;;;9.90;99.90;;;;;;5039117;28;20065;-81
2024/01/24 05:57:15;;;;;;;1999.90;999.90;;;9.80;99.90;;;;;;5016585;28;20597;-80
2024/01/24 05:59:43;;;;;;;1999.90;999.90;;;10.10;99.90;;;;;;5016789;28;20047;-79
2024/01/24 06:02:08;;;;;;;1999.90;999.90;;;9.80;99.90;;;;;;5020450;28;20041;-79
2024/01/24 06:04:34;;;;;;;1999.90;999.90;;;9.80;99.90;;;;;;5034375;28;20038;-81
2024/01/24 06:07:02;;;;;;;1999.90;999.90;;;10.40;99.90;;;;;;5037375;28;20045;-79
2024/01/24 06:09:28;;;;;;;1999.90;999.90;;;10.80;99.90;;;;;;5015440;28;20044;-80
2024/01/24 06:11:54;;;;;;;1999.90;999.90;;;9.80;99.90;;;;;;5019059;28;20045;-81
2024/01/24 06:14:25;;;;;;;1999.90;999.90;;;10.40;99.90;;;;;;5019303;28;20041;-81
2024/01/24 06:16:51;;;;;;;1999.90;999.90;;;9.80;99.90;;;;;;5036849;28;20029;-81
2024/01/24 06:19:16;;;;;;;1999.90;999.90;;;9.80;99.90;;;;;;5036677;28;20482;-80
2024/01/24 06:21:42;;;;;;;1999.90;999.90;;;9.80;99.90;;;;;;5020924;28;20044;-80
2024/01/24 06:24:08;;;;;;;1999.90;999.90;;;9.90;99.90;;;;;;5036994;28;20045;-81
2024/01/24 06:26:37;;;;;;;1999.90;999.90;;;10.50;99.90;;;;;;5041212;28;20044;-81
2024/01/24 06:29:03;;;;;;;1999.90;999.90;;;9.70;99.90;;;;;;5041858;28;20067;-82
2024/01/24 06:31:30;;;;;;;1999.90;999.90;;;9.70;99.90;;;;;;5020590;28;20034;-81
2024/01/24 06:33:55;;;;;;;1999.90;999.90;;;9.90;99.90;;;;;;5021210;28;20036;-82
2024/01/24 06:36:21;;;;;;;1999.90;999.90;;;10.40;99.90;;;;;;5020654;28;20037;-80
2024/01/24 06:38:47;;;;;;;1999.90;999.90;;;10.50;99.90;;;;;;5019949;28;20120;-80
2024/01/24 06:41:13;;;;;;;1999.90;999.90;;;9.70;99.90;;;;;;5019678;28;20455;-80
2024/01/24 06:43:41;;;;;;;1999.90;999.90;;;9.80;99.90;;;;;;5020203;28;20037;-81
2024/01/24 06:46:08;;;;;;;1999.90;999.90;;;9.90;99.90;;;;;;5020107;28;20041;-81
2024/01/24 06:48:34;;;;;;;1999.90;999.90;;;10.60;99.90;;;;;;5021209;28;20037;-81
2024/01/24 06:51:00;;;;;;;1999.90;999.90;;;9.60;99.90;;;;;;5036213;28;20034;-81
2024/01/24 06:53:29;;;;;;;1999.90;999.90;;;10.50;99.90;;;;;;5019825;28;20044;-81
2024/01/24 06:55:56;;;;;;;1999.90;999.90;;;10.20;99.90;;;;;;5033331;28;20033;-79
2024/01/24 06:58:21;;;;;;;1999.90;999.90;;;10.50;99.90;;;;;;5032011;28;20034;-79
2024/01/24 07:00:47;;;;;;;1999.90;999.90;;;9.50;99.90;;;;;;5033027;28;20088;-80
2024/01/24 07:03:14;;;;;;;1999.90;999.90;;;9.50;99.90;;;;;;5020494;28;20125;-80
2024/01/24 07:05:40;;;;;;;1999.90;999.90;;;9.60;99.90;;;;;;5020574;28;20045;-80
2024/01/24 07:08:06;;;;;;;1999.90;999.90;;;9.50;99.90;;;;;;5019330;28;20133;-80
2024/01/24 07:10:32;;;;;;;1999.90;999.90;;;9.40;99.90;;;;;;5019579;28;20076;-80
2024/01/24 07:12:58;;;;;;;1999.90;999.90;;;9.40;99.90;;;;;;5037788;28;20111;-81
2024/01/24 07:15:25;;;;;;;1999.90;999.90;;;9.60;99.90;;;;;;5040654;28;20093;-81
2024/01/24 07:17:50;;;;;;;1999.90;999.90;;;10.40;99.90;;;;;;5023430;28;20447;-80
2024/01/24 07:20:18;;;;;;;1999.90;999.90;;;9.60;99.90;;;;;;5039673;28;20038;-80
2024/01/24 07:22:43;;;;;;;1999.90;999.90;;;9.60;99.90;;;;;;5023168;28;20037;-81
2024/01/24 07:25:09;;;;;;;1999.90;999.90;;;9.60;99.90;;;;;;5023225;28;20106;-80
2024/01/24 07:27:35;;;;;;;1999.90;999.90;;;9.70;99.90;;;;;;5039761;28;20044;-81
2024/01/24 07:30:04;;;;;;;1999.90;999.90;;;9.70;99.90;;;;;;5038218;28;20045;-80
2024/01/24 07:32:31;;;;;;;1999.90;999.90;;;9.60;99.90;;;;;;5040163;28;20059;-80
2024/01/24 07:34:58;;;;;;;1999.90;999.90;;;10.20;99.90;;;;;;5039372;28;20128;-81
2024/01/24 07:37:23;;;;;;;1999.90;999.90;;;9.50;99.90;;;;;;5023114;28;20041;-82
2024/01/24 07:39:49;;;;;;;1999.90;999.90;;;9.50;99.90;;;;;;5022712;28;20061;-81
2024/01/24 07:42:15;;;;;;;1999.90;999.90;;;9.70;99.90;;;;;;5026403;28;20068;-80
2024/01/24 07:44:40;;;;;;;1999.90;999.90;;;9.40;99.90;;;;;;5023391;28;20038;-80
2024/01/24 07:47:06;;;;;;;1999.90;999.90;;;9.40;99.90;;;;;;5022879;28;20469;-82
2024/01/24 07:49:33;;;;;;;1999.90;999.90;;;9.50;99.90;;;;;;5022827;28;20037;-80
2024/01/24 07:51:59;;;;;;;1999.90;999.90;;;9.30;99.90;;;;;;5023588;28;20077;-81
2024/01/24 07:54:25;;;;;;;1999.90;999.90;;;9.30;99.90;;;;;;5025061;28;20041;-82
2024/01/24 07:56:51;;;;;;;1999.90;999.90;;;9.70;99.90;;;;;;5025016;28;20033;-83
2024/01/24 07:59:17;;;;;;;1999.90;999.90;;;9.80;99.90;;;;;;5027405;28;20089;-83
2024/01/24 08:01:48;;;;;;;1999.90;999.90;;;9.40;99.90;;;;;;5026999;28;20045;-81
2024/01/24 08:04:14;;;;;;;1999.90;999.90;;;9.40;99.90;;;;;;5042928;28;20045;-81
2024/01/24 08:06:41;;;;;;;1999.90;999.90;;;9.40;99.90;;;;;;5043105;28;20465;-82
2024/01/24 08:09:07;;;;;;;1999.90;999.90;;;10.10;99.90;;;;;;5026069;28;20442;-81
2024/01/24 08:11:32;;;;;;;1999.90;999.90;;;9.80;99.90;;;;;;5025669;28;20091;-81
2024/01/24 08:13:58;;;;;;;1999.90;999.90;;;9.40;99.90;;;;;;5042650;28;20061;-79
2024/01/24 08:16:23;;;;;;;1999.90;999.90;;;9.60;99.90;;;;;;5031863;28;20044;-80
2024/01/24 08:18:49;;;;;;;1999.90;999.90;;;9.80;99.90;;;;;;5028883;28;20041;-81
2024/01/24 08:21:15;;;;;;;1999.90;999.90;;;9.40;99.90;;;;;;5041254;28;20077;-81
2024/01/24 08:23:41;;;;;;;1999.90;999.90;;;9.40;99.90;;;;;;5043828;28;20041;-81
2024/01/24 08:26:09;;;;;;;1999.90;999.90;;;9.60;99.90;;;;;;5026986;28;20060;-81
2024/01/24 08:28:35;;;;;;;1999.90;999.90;;;9.70;99.90;;;;;;5025979;28;20105;-82
2024/01/24 08:31:01;;;;;;;1999.90;999.90;;;9.30;99.90;;;;;;5025717;28;20033;-82
2024/01/24 08:33:26;;;;;;;1999.90;999.90;;;9.50;99.90;;;;;;5025498;28;20048;-81
2024/01/24 08:35:52;;;;;;;1999.90;999.90;;;9.50;99.90;;;;;;5024613;28;20100;-82
2024/01/24 08:38:18;;;;;;;1999.90;999.90;;;9.40;99.90;;;;;;5041914;28;20037;-81
2024/01/24 08:40:43;;;;;;;1999.90;999.90;;;9.80;99.90;;;;;;5042071;28;20056;-81
2024/01/24 08:43:09;;;;;;;1999.90;999.90;;;9.40;99.90;;;;;;5044817;28;20052;-80
2024/01/24 08:45:35;;;;;;;1999.90;999.90;;;9.40;99.90;;;;;;5023136;28;20042;-83
2024/01/24 08:48:00;;;;;;;1999.90;999.90;;;9.50;99.90;;;;;;5024653;28;20037;-80
2024/01/24 08:50:26;;;;;;;1999.90;999.90;;;9.50;99.90;;;;;;5040362;28;20037;-81
2024/01/24 08:52:52;;;;;;;1999.90;999.90;;;10.20;99.90;;;;;;5022105;28;20037;-81
2024/01/24 08:55:18;;;;;;;1999.90;999.90;;;9.40;99.90;;;;;;5039253;28;20068;-81
2024/01/24 08:57:44;;;;;;;1999.90;999.90;;;9.30;99.90;;;;;;5039005;28;20048;-82
2024/01/24 09:00:13;;;;;;;1999.90;999.90;;;9.30;99.90;;;;;;5023658;28;20092;-83
2024/01/24 09:02:39;;;;;;;1999.90;999.90;;;9.30;99.90;;;;;;5018864;28;20045;-82
2024/01/24 09:05:05;;;;;;;1999.90;999.90;;;9.40;99.90;;;;;;5022126;28;20044;-82
2024/01/24 09:07:31;;;;;;;1999.90;999.90;;;9.40;99.90;;;;;;5022157;28;20041;-83
2024/01/24 09:09:57;;;;;;;1999.90;999.90;;;9.40;99.90;;;;;;5021206;28;20116;-81
2024/01/24 09:12:23;;;;;;;1999.90;999.90;;;9.40;99.90;;;;;;5020308;28;20049;-80
2024/01/24 09:14:49;;;;;;;1999.90;999.90;;;9.40;99.90;;;;;;5019456;28;20033;-79
2024/01/24 09:17:15;;;;;;;1999.90;999.90;;;9.50;99.90;;;;;;5019913;28;20037;-80
2024/01/24 09:19:41;;;;;;;1999.90;999.90;;;10.20;99.90;;;;;;5021004;28;20083;-80
2024/01/24 09:22:07;;;;;;;1999.90;999.90;;;9.40;99.90;;;;;;5037117;28;20111;-79
2024/01/24 09:24:32;;;;;;;1999.90;999.90;;;9.40;99.90;;;;;;5036682;28;20088;-80
2024/01/24 09:26:58;;;;;;;1999.90;999.90;;;9.40;99.90;;;;;;5020139;28;20037;-80
2024/01/24 09:29:24;;;;;;;1999.90;999.90;;;9.40;99.90;;;;;;5036134;28;20045;-80
2024/01/24 09:31:50;;;;;;;1999.90;999.90;;;9.40;99.90;;;;;;5020532;28;20038;-80
2024/01/24 09:34:16;;;;;;;1999.90;999.90;;;9.40;99.90;;;;;;5030734;28;20048;-82
2024/01/24 09:36:42;;;;;;;1999.90;999.90;;;9.40;99.90;;;;;;5022596;28;20033;-80
2024/01/24 09:39:09;;;;;;;1999.90;999.90;;;10.10;99.90;;;;;;5045911;28;20417;-79
2024/01/24 09:41:40;;;;;;;1999.90;999.90;;;9.50;99.90;;;;;;5036297;28;20037;-79
2024/01/24 09:44:08;;;;;;;1999.90;999.90;;;9.60;99.90;;;;;;5019989;28;20421;-81
2024/01/24 09:46:40;;;;;;;1999.90;999.90;;;9.60;99.90;;;;;;5034563;28;20044;-80
2024/01/24 09:49:06;;;;;;;1999.90;999.90;;;9.60;99.90;;;;;;5019590;28;20082;-81
2024/01/24 09:51:33;;;;;;;1999.90;999.90;;;9.60;99.90;;;;;;5007152;28;20029;-80
2024/01/24 09:54:07;;;;;;;1999.90;999.90;;;10.00;99.90;;;;;;5018889;28;20046;-79
2024/01/24 09:56:35;;;;;;;1999.90;999.90;;;10.40;99.90;;;;;;5015540;28;20568;-80
2024/01/24 09:59:02;;;;;;;1999.90;999.90;;;9.70;99.90;;;;;;5016180;28;20033;-80
2024/01/24 10:01:31;;;;;;;1999.90;999.90;;;9.70;99.90;;;;;;5035506;28;20291;-80
2024/01/24 10:03:59;;;;;;;1999.90;999.90;;;9.90;99.90;;;;;;5019184;28;20095;-79
2024/01/24 10:06:26;;;;;;;1999.90;999.90;;;9.80;99.90;;;;;;5018458;28;20061;-79
2024/01/24 10:08:51;;;;;;;1999.90;999.90;;;9.80;99.90;;;;;;5018970;28;20029;-79
2024/01/24 10:11:17;;;;;;;1999.90;999.90;;;10.50;99.90;;;;;;5035483;28;20502;-80
2024/01/24 10:13:43;;;;;;;1999.90;999.90;;;10.20;99.90;;;;;;5020577;28;20473;-81
2024/01/24 10:16:09;;;;;;;1999.90;999.90;;;10.10;99.90;;;;;;5020177;28;20033;-80
2024/01/24 10:18:35;;;;;;;1999.90;999.90;;;10.00;99.90;;;;;;5020164;28;20091;-80
2024/01/24 10:21:05;;;;;;;1999.90;999.90;;;10.00;99.90;;;;;;5032283;28;20041;-81
2024/01/24 10:23:31;;;;;;;1999.90;999.90;;;10.10;99.90;;;;;;5018276;28;20041;-80
2024/01/24 10:25:57;;;;;;;1999.90;999.90;;;10.30;99.90;;;;;;5022982;28;20123;-80
2024/01/24 10:28:23;;;;;;;1999.90;999.90;;;10.30;99.90;;;;;;5029303;28;20033;-80
2024/01/24 10:30:49;;;;;;;1999.90;999.90;;;10.00;99.90;;;;;;5012759;28;20724;-80
2024/01/24 10:33:15;;;;;;;1999.90;999.90;;;10.00;99.90;;;;;;5028874;28;20128;-80
2024/01/24 10:35:42;;;;;;;1999.90;999.90;;;10.10;99.90;;;;;;5018045;28;20124;-80
2024/01/24 10:38:12;;;;;;;1999.90;999.90;;;10.70;99.90;;;;;;5033277;28;20049;-81
2024/01/24 10:40:41;;;;;;;1999.90;999.90;;;10.10;99.90;;;;;;5035235;28;20117;-80
2024/01/24 10:43:12;;;;;;;1999.90;999.90;;;10.10;99.90;;;;;;5017219;28;20036;-80
2024/01/24 10:45:43;;;;;;;1999.90;999.90;;;10.10;99.90;;;;;;5032876;28;20486;-81
2024/01/24 10:48:10;;;;;;;1999.90;999.90;;;10.30;99.90;;;;;;5034328;28;20403;-84
2024/01/24 10:50:40;;;;;;;1999.90;999.90;;;10.20;99.90;;;;;;5034177;28;20470;-82
2024/01/24 10:53:08;;;;;;;1999.90;999.90;;;10.30;99.90;;;;;;5021329;28;20041;-80
2024/01/24 10:55:34;;;;;;;1999.90;999.90;;;10.70;99.90;;;;;;5036848;28;20510;-81
2024/01/24 10:58:00;;;;;;;1999.90;999.90;;;10.40;99.90;;;;;;5020443;28;20040;-81
2024/01/24 11:00:28;;;;;;;1999.90;999.90;;;10.40;99.90;;;;;;5016023;28;20029;-80
2024/01/24 11:02:54;;;;;;;1999.90;999.90;;;10.40;99.90;;;;;;5009301;28;20042;-82
2024/01/24 11:05:21;;;;;;;1999.90;999.90;;;10.90;99.90;;;;;;5033868;28;20136;-84
2024/01/24 11:08:16;;;;;;;1999.90;999.90;;;10.40;99.90;;;;;;5021930;28;20029;-82
2024/01/24 11:10:43;;;;;;;1999.90;999.90;;;10.50;99.90;;;;;;5012446;28;20045;-81
2024/01/24 11:13:11;;;;;;;1999.90;999.90;;;10.50;99.90;;;;;;5038129;28;20064;-82
2024/01/24 11:15:37;;;;;;;1999.90;999.90;;;10.50;99.90;;;;;;5023792;28;20045;-82
2024/01/24 11:18:19;;;;;;;1999.90;999.90;;;10.50;99.90;;;;;;5023852;28;20037;-82
2024/01/24 11:20:46;;;;;;;1999.90;999.90;;;10.50;99.90;;;;;;5029439;28;20079;-81
2024/01/24 11:23:35;;;;;;;1999.90;999.90;;;10.50;99.90;;;;;;5018552;28;20049;-81
2024/01/24 11:26:04;;;;;;;1999.90;999.90;;;10.50;99.90;;;;;;5017025;28;20053;-82
2024/01/24 11:28:30;;;;;;;1999.90;999.90;;;10.50;99.90;;;;;;5027765;28;20077;-79
2024/01/24 11:30:56;;;;;;;1999.90;999.90;;;10.50;99.90;;;;;;5028007;28;20456;-81
2024/01/24 11:33:21;;;;;;;1999.90;999.90;;;10.40;99.90;;;;;;5033606;28;20076;-83
2024/01/24 11:35:50;;;;;;;1999.90;999.90;;;11.00;99.90;;;;;;5023294;28;20038;-79
2024/01/24 11:38:31;;;;;;;1999.90;999.90;;;10.50;99.90;;;;;;5015766;28;20125;-79
2024/01/24 11:41:00;;;;;;;1999.90;999.90;;;10.60;99.90;;;;;;5015114;28;20036;-79
2024/01/24 11:43:27;;;;;;;1999.90;999.90;;;10.40;99.90;;;;;;5035255;28;20049;-79
2024/01/24 11:46:02;;;;;;;1999.90;999.90;;;10.40;99.90;;;;;;5010936;28;20037;-79
2024/01/24 11:48:29;;;;;;;1999.90;999.90;;;10.40;99.90;;;;;;5015932;28;20041;-78
2024/01/24 11:50:54;;;;;;;1999.90;999.90;;;10.50;99.90;;;;;;5028566;28;20037;-79
2024/01/24 11:53:20;;;;;;;1999.90;999.90;;;10.30;99.90;;;;;;5035063;28;20033;-78
2024/01/24 11:55:52;;;;;;;1999.90;999.90;;;10.40;99.90;;;;;;5032307;28;20478;-79
2024/01/24 11:58:18;;;;;;;1999.90;999.90;;;10.40;99.90;;;;;;5033023;28;20083;-78